Time;durP1;ratioP1;P1;durP2;ratioP2;P2;SDS_P1;SDS_P2;PMS_P1;PMS_P2;Temp;Humidity;BMP_temperature;BMP_pressure;BME280_temperature;BME280_humidity;BME280_pressure;Samples;Min_cycle;Max_cycle;Signal;HPM_P1;HPM_P2
2021/09/22 00:00:00;;;;;;;6.67;5.20;;;;;;;4.20;86.48;93523.67;1767308;80;21759;-84
2021/09/22 00:02:27;;;;;;;4.92;4.17;;;;;;;4.20;86.48;93523.67;1768175;79;21070;-85
2021/09/22 00:04:55;;;;;;;5.53;4.65;;;;;;;4.20;86.41;93520.98;1761943;81;21381;-85
2021/09/22 00:07:24;;;;;;;6.17;5.58;;;;;;;4.15;86.42;93525.31;1696557;80;21066;-85
2021/09/22 00:09:51;;;;;;;8.08;5.65;;;;;;;4.08;86.61;93523.23;1730512;81;21016;-85
2021/09/22 00:12:17;;;;;;;5.08;4.58;;;;;;;4.08;87.09;93524.58;1769104;78;21768;-85
2021/09/22 00:14:44;;;;;;;7.85;5.55;;;;;;;4.07;87.15;93520.91;1814055;77;21201;-84
2021/09/22 00:17:12;;;;;;;8.13;5.75;;;;;;;4.04;87.37;93526.98;1733606;82;21670;-86
2021/09/22 00:22:17;;;;;;;7.20;6.40;;;;;;;4.14;87.79;93513.77;1867021;75;23130;-85
2021/09/22 00:24:45;;;;;;;7.58;6.12;;;;;;;4.19;87.66;93513.27;1807525;78;21030;-83
2021/09/22 00:27:11;;;;;;;8.73;5.83;;;;;;;4.21;86.90;93503.70;1764908;77;21121;-85
2021/09/22 00:29:40;;;;;;;8.00;5.28;;;;;;;4.21;86.90;93503.70;1780222;79;21123;-86
2021/09/22 00:32:09;;;;;;;5.55;5.05;;;;;;;4.17;86.97;93512.27;1806448;77;22187;-85
2021/09/22 00:34:36;;;;;;;8.43;5.42;;;;;;;4.12;87.04;93502.56;1793102;78;21490;-85
2021/09/22 00:37:06;;;;;;;8.30;5.78;;;;;;;4.02;87.28;93496.38;1814284;78;21101;-84
2021/09/22 00:39:37;;;;;;;6.70;4.70;;;;;;;3.97;87.49;93498.57;1809866;78;21086;-85
2021/09/22 00:42:03;;;;;;;5.45;4.95;;;;;;;3.98;87.90;93498.20;1807738;76;21021;-86
2021/09/22 00:44:30;;;;;;;6.15;5.37;;;;;;;4.04;87.95;93485.28;1796168;76;21054;-86
2021/09/22 00:46:58;;;;;;;6.03;5.10;;;;;;;4.04;87.95;93485.28;1763926;77;21086;-85
2021/09/22 00:49:26;;;;;;;7.10;5.65;;;;;;;4.14;88.26;93493.58;1827506;77;21011;-86
2021/09/22 00:51:54;;;;;;;7.62;4.92;;;;;;;4.18;87.72;93485.58;1829450;77;21100;-84
2021/09/22 00:54:20;;;;;;;6.65;5.97;;;;;;;4.17;87.82;93482.66;1759834;77;21069;-86
2021/09/22 00:56:48;;;;;;;6.62;5.92;;;;;;;4.17;87.70;93485.34;1791300;77;21037;-85
2021/09/22 00:59:15;;;;;;;6.37;5.15;;;;;;;4.23;88.12;93486.64;1773753;79;21005;-87
2021/09/22 01:01:42;;;;;;;5.87;5.17;;;;;;;4.29;88.07;93481.77;1730000;81;21049;-85
2021/09/22 01:04:08;;;;;;;5.90;4.42;;;;;;;4.27;87.70;93467.88;1784518;78;21473;-86
2021/09/22 01:06:35;;;;;;;7.37;4.97;;;;;;;4.21;87.93;93466.58;1762859;77;20990;-85
2021/09/22 01:09:03;;;;;;;5.42;4.92;;;;;;;4.14;88.59;93461.28;1746453;80;21073;-85
2021/09/22 01:11:33;;;;;;;8.85;5.78;;;;;;;4.17;88.75;93461.13;1760004;81;21571;-86
2021/09/22 01:13:58;;;;;;;7.78;5.10;;;;;;;4.29;88.80;93451.59;1793009;78;21014;-85
2021/09/22 01:16:27;;;;;;;6.42;4.50;;;;;;;4.29;88.80;93451.59;1802566;78;21646;-85
2021/09/22 01:18:53;;;;;;;5.67;5.10;;;;;;;4.28;88.63;93442.50;1782769;79;21069;-86
2021/09/22 01:21:20;;;;;;;7.28;5.33;;;;;;;4.28;88.63;93442.50;1813224;77;21005;-85
2021/09/22 01:23:50;;;;;;;6.62;4.75;;;;;;;4.27;88.85;93441.73;1770636;79;21082;-85
2021/09/22 01:26:18;;;;;;;8.03;5.10;;;;;;;4.28;88.50;93433.08;1793692;79;20986;-86
2021/09/22 01:28:45;;;;;;;9.13;6.22;;;;;;;4.28;88.49;93447.31;1735470;81;21560;-85
2021/09/22 01:31:13;;;;;;;7.62;6.78;;;;;;;4.30;88.78;93451.02;1711387;81;21035;-84
2021/09/22 01:33:43;;;;;;;8.13;6.72;;;;;;;4.33;88.58;93450.31;1763131;78;21054;-84
2021/09/22 01:36:15;;;;;;;8.70;6.87;;;;;;;4.35;88.45;93447.46;1755809;80;21057;-86
2021/09/22 01:38:45;;;;;;;10.08;7.37;;;;;;;4.39;88.40;93439.45;1774910;77;21057;-85
2021/09/22 01:41:14;;;;;;;9.95;7.42;;;;;;;4.43;88.55;93442.22;1838789;77;21193;-85
2021/09/22 01:43:59;;;;;;;5.80;5.20;;;;;;;4.48;88.49;93436.56;1769376;79;21544;-84
2021/09/22 01:46:28;;;;;;;5.67;4.70;;;;;;;4.52;88.10;93434.14;1765129;78;21049;-86
2021/09/22 01:48:56;;;;;;;6.50;4.83;;;;;;;4.48;87.80;93436.00;1785285;78;21059;-86
2021/09/22 01:51:22;;;;;;;5.92;4.83;;;;;;;4.41;88.10;93431.05;1782038;77;21050;-86
2021/09/22 01:54:03;;;;;;;5.78;5.15;;;;;;;4.35;88.40;93436.70;1763724;77;21517;-86
2021/09/22 01:56:32;;;;;;;5.22;4.72;;;;;;;4.37;88.81;93439.05;1839478;76;20966;-86
2021/09/22 01:59:00;;;;;;;6.78;5.10;;;;;;;4.41;89.06;93439.13;1805684;79;21075;-86
2021/09/22 02:01:28;;;;;;;7.45;5.25;;;;;;;4.39;88.99;93433.50;1748914;78;21066;-86
2021/09/22 02:03:58;;;;;;;6.97;5.35;;;;;;;4.41;89.61;93427.78;1764170;80;21621;-86
2021/09/22 02:06:26;;;;;;;7.30;4.90;;;;;;;4.49;90.02;93425.43;1780463;78;21167;-86
2021/09/22 02:08:53;;;;;;;5.85;5.30;;;;;;;4.57;89.50;93432.50;1798309;78;21053;-85
2021/09/22 02:11:22;;;;;;;6.22;5.25;;;;;;;4.63;89.70;93431.09;1806929;78;20994;-85
2021/09/22 02:13:48;;;;;;;5.45;4.95;;;;;;;4.68;89.94;93426.54;1804160;78;21131;-84
2021/09/22 02:16:18;;;;;;;6.28;5.28;;;;;;;4.68;89.81;93424.63;1754968;80;21612;-85
2021/09/22 02:18:51;;;;;;;6.72;5.10;;;;;;;4.61;89.58;93423.92;1760371;79;21151;-84
2021/09/22 02:21:18;;;;;;;6.62;5.47;;;;;;;4.52;89.99;93420.69;1774247;78;21010;-84
2021/09/22 02:23:45;;;;;;;7.35;5.58;;;;;;;4.52;90.32;93417.22;1783553;77;21730;-84
2021/09/22 02:26:14;;;;;;;7.22;5.80;;;;;;;4.52;90.52;93419.91;1824437;77;21088;-85
2021/09/22 02:28:42;;;;;;;6.08;5.12;;;;;;;4.52;90.78;93417.99;1837955;77;21507;-85
2021/09/22 02:31:11;;;;;;;10.00;6.90;;;;;;;4.52;90.82;93414.52;1774811;77;21060;-85
2021/09/22 02:33:57;;;;;;;8.33;5.70;;;;;;;4.54;91.17;93415.70;1759232;80;21572;-84
2021/09/22 02:36:25;;;;;;;5.90;4.90;;;;;;;4.62;91.53;93420.08;1760117;79;21296;-85
2021/09/22 02:39:03;;;;;;;6.28;5.00;;;;;;;4.69;91.35;93419.44;1770102;79;21073;-85
2021/09/22 02:41:32;;;;;;;6.47;5.40;;;;;;;4.70;91.00;93419.67;1801081;78;21007;-85
2021/09/22 02:44:00;;;;;;;6.45;5.35;;;;;;;4.63;91.24;93412.80;1825704;76;22367;-85
2021/09/22 02:46:29;;;;;;;5.72;5.12;;;;;;;4.64;91.80;93417.05;1817533;76;21118;-85
2021/09/22 02:49:04;;;;;;;6.65;4.37;;;;;;;4.64;92.17;93415.70;1786193;78;21032;-86
2021/09/22 02:51:31;;;;;;;7.35;4.50;;;;;;;4.67;92.22;93410.17;1771996;79;21614;-85
2021/09/22 02:53:59;;;;;;;6.53;4.62;;;;;;;4.65;91.73;93413.78;1830940;77;21203;-86
2021/09/22 02:56:26;;;;;;;7.28;4.35;;;;;;;4.65;91.71;93407.05;1831238;76;21045;-85
2021/09/22 02:58:53;;;;;;;7.22;6.17;;;;;;;4.60;91.79;93402.16;1796238;77;20975;-85
2021/09/22 03:01:19;;;;;;;7.17;6.17;;;;;;;4.63;92.31;93403.38;1797676;77;21072;-85
2021/09/22 03:03:47;;;;;;;6.85;5.65;;;;;;;4.63;92.93;93402.80;1787885;79;21554;-86
2021/09/22 03:06:14;;;;;;;5.50;4.90;;;;;;;4.66;92.90;93400.52;1811208;77;21068;-85
2021/09/22 03:08:40;;;;;;;9.63;6.53;;;;;;;4.70;92.62;93395.97;1839112;77;21113;-86
2021/09/22 03:11:09;;;;;;;8.13;5.78;;;;;;;4.75;92.64;93397.04;1807045;78;21088;-85
2021/09/22 03:13:37;;;;;;;6.00;4.65;;;;;;;4.81;92.35;93399.09;1793703;77;21568;-86
2021/09/22 03:16:05;;;;;;;7.20;5.37;;;;;;;4.77;91.94;93390.14;1799890;77;21196;-85
2021/09/22 03:18:32;;;;;;;9.05;6.85;;;;;;;4.73;91.80;93385.83;1804115;77;21058;-85
2021/09/22 03:20:58;;;;;;;10.68;7.67;;;;;;;4.72;92.27;93386.41;1806191;77;21197;-85
2021/09/22 03:23:27;;;;;;;12.68;7.47;;;;;;;4.73;92.76;93381.22;1832315;77;21460;-85
2021/09/22 03:25:57;;;;;;;8.08;5.80;;;;;;;4.79;92.91;93389.80;1783701;79;21017;-86
2021/09/22 03:28:26;;;;;;;6.17;4.95;;;;;;;4.78;92.93;93382.28;1775799;79;21155;-85
2021/09/22 03:30:53;;;;;;;6.15;5.12;;;;;;;4.78;93.01;93388.25;1775101;78;21531;-85
2021/09/22 03:33:20;;;;;;;6.28;5.53;;;;;;;4.76;93.12;93381.08;1799036;77;21737;-85
2021/09/22 03:35:47;;;;;;;7.47;5.53;;;;;;;4.71;93.07;93370.04;1818014;77;21230;-85
2021/09/22 03:38:16;;;;;;;10.95;7.40;;;;;;;4.70;93.56;93366.34;1816568;77;21059;-85
2021/09/22 03:40:43;;;;;;;18.77;12.60;;;;;;;4.75;93.76;93366.06;1798880;77;21650;-85
2021/09/22 03:43:09;;;;;;;19.23;12.35;;;;;;;4.82;93.88;93363.48;1766926;78;21085;-84
2021/09/22 03:45:36;;;;;;;16.12;9.88;;;;;;;4.85;93.57;93370.83;1728663;81;21102;-85
2021/09/22 03:48:03;;;;;;;14.68;9.93;;;;;;;4.86;93.61;93369.71;1732298;81;21114;-87
2021/09/22 03:50:31;;;;;;;13.00;8.88;;;;;;;4.85;93.71;93369.48;1723170;81;21069;-85
2021/09/22 03:52:59;;;;;;;12.00;8.05;;;;;;;4.83;93.94;93369.08;1781608;78;21089;-85
2021/09/22 03:55:27;;;;;;;13.53;7.60;;;;;;;4.84;93.87;93368.70;1768030;77;21307;-85
2021/09/22 03:57:53;;;;;;;11.33;8.20;;;;;;;4.85;93.91;93370.83;1757896;79;21115;-85
2021/09/22 04:00:20;;;;;;;13.25;9.10;;;;;;;4.83;93.84;93370.42;1737730;80;22418;-86
2021/09/22 04:02:47;;;;;;;14.75;8.60;;;;;;;4.79;93.98;93364.98;1728035;80;21139;-85
2021/09/22 04:05:13;;;;;;;14.40;8.85;;;;;;;4.80;94.12;93367.88;1786500;77;21120;-85
2021/09/22 04:07:40;;;;;;;10.15;7.58;;;;;;;4.80;93.93;93367.09;1762719;78;21152;-85
2021/09/22 04:10:08;;;;;;;8.40;6.85;;;;;;;4.77;93.71;93361.84;1770649;79;21777;-86
2021/09/22 04:12:34;;;;;;;11.00;7.47;;;;;;;4.76;93.85;93358.95;1712391;81;21022;-85
2021/09/22 04:15:01;;;;;;;10.90;7.72;;;;;;;4.75;94.02;93367.41;1761865;80;21035;-85
2021/09/22 04:17:28;;;;;;;13.55;9.78;;;;;;;4.74;94.09;93363.94;1800153;78;21022;-85
2021/09/22 04:19:54;;;;;;;16.05;9.70;;;;;;;4.75;94.22;93367.41;1810902;76;21567;-85
2021/09/22 04:22:21;;;;;;;15.72;9.78;;;;;;;4.75;94.48;93360.09;1780037;78;21085;-85
2021/09/22 04:24:49;;;;;;;15.63;9.95;;;;;;;4.78;94.49;93361.31;1787875;77;21098;-87
2021/09/22 04:27:16;;;;;;;26.77;14.75;;;;;;;4.78;94.84;93354.00;1759969;78;21050;-85
2021/09/22 04:29:59;;;;;;;27.37;16.12;;;;;;;4.79;94.81;93356.12;1783533;79;20979;-85
2021/09/22 04:32:38;;;;;;;15.03;10.10;;;;;;;4.78;94.99;93350.53;1827966;77;21145;-86
2021/09/22 04:35:23;;;;;;;13.15;10.23;;;;;;;4.83;95.23;93351.56;1793750;77;21738;-85
2021/09/22 04:38:08;;;;;;;9.88;8.23;;;;;;;4.83;95.04;93340.79;1787998;78;21503;-88
2021/09/22 04:40:53;;;;;;;11.88;7.65;;;;;;;4.78;95.00;93341.88;1787140;79;21572;-85
2021/09/22 04:43:39;;;;;;;13.48;10.55;;;;;;;4.75;95.36;93345.28;1744625;78;21098;-85
2021/09/22 04:46:25;;;;;;;14.30;9.63;;;;;;;4.77;95.69;93347.61;1768184;77;21037;-85
2021/09/22 04:49:10;;;;;;;9.15;7.55;;;;;;;4.78;95.64;93347.27;1801134;77;21664;-86
2021/09/22 04:51:55;;;;;;;10.98;8.23;;;;;;;4.77;95.73;93351.65;1758347;80;21101;-85
2021/09/22 04:54:42;;;;;;;9.43;7.17;;;;;;;4.76;96.07;93342.79;1773580;78;21573;-85
2021/09/22 04:57:28;;;;;;;12.88;8.20;;;;;;;4.78;96.19;93345.14;1723260;77;21716;-86
2021/09/22 05:00:14;;;;;;;20.75;12.03;;;;;;;4.85;96.45;93347.92;1829334;77;21435;-86
2021/09/22 05:02:50;;;;;;;17.52;12.78;;;;;;;4.94;96.21;93348.48;1784425;78;22008;-86
2021/09/22 05:05:35;;;;;;;10.90;8.75;;;;;;;5.00;96.03;93344.35;1723449;81;21088;-85
2021/09/22 05:08:21;;;;;;;8.18;6.47;;;;;;;5.05;95.87;93345.95;1760032;79;21068;-86
2021/09/22 05:11:06;;;;;;;8.73;6.47;;;;;;;4.96;95.18;93340.80;1819465;76;21084;-86
2021/09/22 05:13:53;;;;;;;10.58;7.10;;;;;;;4.80;95.38;93338.81;1788696;77;21101;-87
2021/09/22 05:16:39;;;;;;;7.37;5.08;;;;;;;4.72;96.01;93333.10;1752509;80;21054;-87
2021/09/22 05:19:24;;;;;;;4.95;4.30;;;;;;;4.74;96.87;93331.61;1743107;80;20969;-85
2021/09/22 05:22:15;;;;;;;4.45;4.05;;;;;;;4.82;96.98;93331.16;1800613;77;21109;-87
2021/09/22 05:24:59;;;;;;;4.60;4.17;;;;;;;4.82;96.14;93329.81;1809015;77;21620;-87
2021/09/22 05:27:46;;;;;;;4.28;3.87;;;;;;;4.69;96.10;93321.12;1823843;77;21458;-86
2021/09/22 05:30:32;;;;;;;4.67;4.28;;;;;;;4.60;96.43;93325.98;1815756;77;21651;-87
2021/09/22 05:33:10;;;;;;;4.95;4.50;;;;;;;4.60;97.14;93327.33;1752991;79;21076;-87
2021/09/22 05:35:54;;;;;;;6.97;6.05;;;;;;;4.66;97.02;93331.27;1760530;79;21556;-87
2021/09/22 05:38:40;;;;;;;8.70;6.80;;;;;;;4.73;97.35;93319.83;1736608;80;21044;-87
2021/09/22 05:41:25;;;;;;;6.87;5.22;;;;;;;4.80;97.15;93322.08;1706021;80;21627;-86
2021/09/22 05:44:11;;;;;;;;;;;;;;;4.86;96.99;93322.56;1736654;79;21191;-88
2021/09/22 05:46:39;;;;;;;6.37;5.78;;;;;;;4.85;96.39;93323.68;1734971;79;20577;-86
2021/09/22 05:49:25;;;;;;;7.67;6.53;;;;;;;4.88;96.45;93318.92;1757012;79;21108;-87
2021/09/22 05:52:09;;;;;;;9.93;8.50;;;;;;;4.95;96.63;93323.66;1751489;79;22138;-86
2021/09/22 05:54:55;;;;;;;11.90;8.40;;;;;;;5.03;96.59;93319.92;1728359;80;21066;-86
2021/09/22 05:57:41;;;;;;;6.30;5.58;;;;;;;5.11;96.50;93320.23;1727933;81;21042;-86
2021/09/22 06:00:13;;;;;;;4.90;4.42;;;;;;;5.12;96.00;93313.72;1763824;79;21050;-87
2021/09/22 06:02:40;;;;;;;6.20;5.50;;;;;;;5.02;95.91;93319.15;1729872;79;21579;-87
2021/09/22 06:05:24;;;;;;;14.37;9.97;;;;;;;5.01;96.79;93320.88;1734025;80;21050;-87
2021/09/22 06:08:09;;;;;;;10.60;8.50;;;;;;;5.07;97.25;93311.31;1762575;80;21361;-88
2021/09/22 06:10:46;;;;;;;10.05;7.55;;;;;;;5.09;97.06;93305.78;1750346;80;21588;-88
2021/09/22 06:13:17;;;;;;;5.75;4.28;;;;;;;5.16;97.53;93309.73;1765377;79;22282;-86
2021/09/22 06:15:44;;;;;;;6.20;4.35;;;;;;;5.19;96.22;93315.17;1768210;79;21064;-87
2021/09/22 06:18:12;;;;;;;5.15;4.45;;;;;;;5.20;95.61;93312.68;1764601;79;21578;-87
2021/09/22 06:20:39;;;;;;;8.53;7.35;;;;;;;5.23;95.44;93307.91;1765861;79;21206;-87
2021/09/22 06:23:06;;;;;;;5.47;4.97;;;;;;;5.30;95.43;93313.41;1759810;80;21102;-87
2021/09/22 06:25:32;;;;;;;4.25;3.67;;;;;;;5.38;95.03;93311.59;1763400;78;21072;-88
2021/09/22 06:27:59;;;;;;;6.10;3.60;;;;;;;5.44;93.66;93312.81;1767742;78;21120;-88
2021/09/22 06:30:26;;;;;;;4.72;3.95;;;;;;;5.46;93.65;93310.54;1789470;77;21569;-88
2021/09/22 06:32:54;;;;;;;4.40;3.90;;;;;;;5.51;93.53;93310.21;1785806;77;21604;-87
2021/09/22 06:35:28;;;;;;;4.05;3.60;;;;;;;5.58;92.66;93306.84;1776965;78;21118;-87
2021/09/22 06:37:58;;;;;;;4.45;4.05;;;;;;;5.59;90.56;93305.69;1742336;79;21076;-88
2021/09/22 06:40:27;;;;;;;4.92;4.42;;;;;;;5.60;90.90;93302.64;1755022;79;21052;-88
2021/09/22 06:42:55;;;;;;;4.62;4.22;;;;;;;5.63;91.08;93302.46;1784546;77;21076;-88
2021/09/22 06:45:23;;;;;;;7.22;5.60;;;;;;;5.64;90.94;93303.23;1753172;79;21157;-87
2021/09/22 06:47:51;;;;;;;6.60;5.87;;;;;;;5.67;91.62;93302.50;1793531;77;21120;-87
2021/09/22 06:50:18;;;;;;;5.55;4.75;;;;;;;5.70;91.86;93307.95;1783842;78;21097;-87
2021/09/22 06:52:44;;;;;;;5.25;4.28;;;;;;;5.77;92.10;93304.56;1779574;77;22309;-86
2021/09/22 06:55:12;;;;;;;10.63;7.58;;;;;;;5.81;92.31;93303.46;1776752;77;21010;-88
2021/09/22 06:57:38;;;;;;;4.10;3.70;;;;;;;5.85;92.71;93301.58;1770939;78;21105;-88
2021/09/22 07:00:09;;;;;;;5.85;4.12;;;;;;;5.89;92.65;93300.84;1804755;77;21090;-88
2021/09/22 07:02:35;;;;;;;5.03;4.53;;;;;;;5.91;91.74;93306.09;1817983;77;21022;-87
2021/09/22 07:05:01;;;;;;;4.45;4.05;;;;;;;5.93;91.12;93301.70;1815114;77;21006;-86
2021/09/22 07:07:27;;;;;;;6.62;4.30;;;;;;;5.91;91.17;93302.05;1814703;77;21065;-87
2021/09/22 07:09:54;;;;;;;4.60;4.20;;;;;;;5.90;90.40;93299.12;1815745;77;21076;-86
2021/09/22 07:12:23;;;;;;;4.33;3.92;;;;;;;5.93;90.31;93299.77;1816141;77;21030;-86
2021/09/22 07:14:50;;;;;;;4.40;4.00;;;;;;;5.97;89.68;93299.81;1809446;77;21469;-87
2021/09/22 07:17:18;;;;;;;3.67;3.17;;;;;;;5.97;89.49;93293.06;1816662;76;21046;-86
2021/09/22 07:19:46;;;;;;;3.77;3.47;;;;;;;5.97;88.23;93303.28;1767272;78;21017;-87
2021/09/22 07:22:14;;;;;;;4.22;3.17;;;;;;;5.92;88.27;93299.57;1766386;78;21077;-87
2021/09/22 07:24:40;;;;;;;4.08;3.10;;;;;;;5.94;88.42;93294.59;1736160;79;21085;-86
2021/09/22 07:27:06;;;;;;;4.12;3.72;;;;;;;5.96;87.49;93300.97;1759908;79;21053;-87
2021/09/22 07:29:33;;;;;;;3.60;3.30;;;;;;;5.95;87.87;93304.23;1791406;77;21584;-87
2021/09/22 07:31:59;;;;;;;5.60;3.33;;;;;;;6.01;88.56;93306.80;1797624;77;21051;-87
2021/09/22 07:34:26;;;;;;;3.80;3.20;;;;;;;6.06;88.30;93311.89;1719224;80;21560;-86
2021/09/22 07:36:55;;;;;;;3.77;2.90;;;;;;;6.10;88.05;93296.30;1776981;79;21116;-86
2021/09/22 07:39:21;;;;;;;2.70;2.50;;;;;;;6.11;87.71;93301.90;1802433;77;21066;-87
2021/09/22 07:41:49;;;;;;;3.17;2.87;;;;;;;6.11;87.45;93297.28;1787663;77;21092;-86
2021/09/22 07:44:16;;;;;;;2.90;2.70;;;;;;;6.07;86.69;93300.52;1804877;77;21082;-86
2021/09/22 07:46:44;;;;;;;3.22;2.80;;;;;;;5.98;86.44;93299.46;1797099;77;21100;-86
2021/09/22 07:49:10;;;;;;;3.00;2.65;;;;;;;5.93;87.33;93295.72;1776880;78;21616;-86
2021/09/22 07:51:37;;;;;;;3.20;2.90;;;;;;;5.98;87.89;93299.46;1776309;78;21077;-86
2021/09/22 07:54:05;;;;;;;3.20;2.50;;;;;;;6.01;87.25;93300.05;1775837;78;21058;-86
2021/09/22 07:56:31;;;;;;;3.30;3.00;;;;;;;5.99;86.87;93302.94;1797547;77;21120;-86
2021/09/22 07:58:58;;;;;;;4.58;3.05;;;;;;;5.97;87.06;93301.16;1809598;77;21285;-86
2021/09/22 08:01:26;;;;;;;5.22;4.83;;;;;;;6.00;88.17;93300.43;1755821;79;21123;-84
2021/09/22 08:03:53;;;;;;;3.75;3.45;;;;;;;6.05;88.40;93302.78;1738150;81;21126;-86
2021/09/22 08:06:23;;;;;;;3.75;3.35;;;;;;;6.08;87.92;93296.08;1767944;79;21552;-85
2021/09/22 08:08:52;;;;;;;2.80;2.60;;;;;;;6.14;87.54;93295.77;1794894;77;21675;-87
2021/09/22 08:11:20;;;;;;;2.80;2.60;;;;;;;6.17;87.42;93293.66;1754674;79;21093;-86
2021/09/22 08:13:48;;;;;;;2.90;2.70;;;;;;;6.16;87.64;93291.53;1792205;77;21129;-86
2021/09/22 08:16:14;;;;;;;2.83;2.62;;;;;;;6.12;87.64;93289.95;1743829;80;21105;-88
2021/09/22 08:20:00;;;;;;;2.80;2.60;;;;;;;6.10;89.10;93286.28;1879399;74;28496;-85
2021/09/22 08:22:28;;;;;;;3.42;3.20;;;;;;;6.08;89.31;93288.56;1810764;77;21053;-86
2021/09/22 08:24:54;;;;;;;3.62;3.33;;;;;;;6.09;89.67;93291.45;1799797;78;21786;-85
2021/09/22 08:27:21;;;;;;;3.75;3.45;;;;;;;6.10;90.07;93283.58;1777936;78;21097;-86
2021/09/22 08:29:48;;;;;;;3.12;2.87;;;;;;;6.15;90.09;93290.56;1761308;77;21164;-86
2021/09/22 08:32:15;;;;;;;3.00;2.80;;;;;;;6.16;89.27;93286.71;1773945;78;21047;-86
2021/09/22 08:34:42;;;;;;;3.33;3.02;;;;;;;6.14;89.54;93288.44;1821125;77;21097;-85
2021/09/22 08:37:10;;;;;;;2.42;2.22;;;;;;;6.12;89.67;93282.62;1798937;77;21077;-86
2021/09/22 08:39:38;;;;;;;3.50;2.80;;;;;;;6.11;88.35;93284.36;1791974;77;21060;-86
2021/09/22 08:42:05;;;;;;;2.90;2.70;;;;;;;6.08;88.74;93285.86;1804248;77;21112;-86
2021/09/22 08:44:34;;;;;;;2.72;2.50;;;;;;;6.05;88.66;93283.31;1783840;75;21605;-86
2021/09/22 08:47:01;;;;;;;2.58;2.37;;;;;;;6.07;88.86;93281.62;1818059;77;21066;-86
2021/09/22 08:49:27;;;;;;;2.75;2.55;;;;;;;6.13;89.00;93282.05;1808140;77;21160;-86
2021/09/22 08:51:53;;;;;;;3.40;2.83;;;;;;;6.17;89.39;93278.26;1820690;75;21069;-86
2021/09/22 08:54:20;;;;;;;3.65;3.00;;;;;;;6.23;89.16;93275.41;1784601;78;21459;-88
2021/09/22 08:56:48;;;;;;;2.30;2.20;;;;;;;6.27;89.23;93275.45;1780575;78;21089;-86
2021/09/22 08:59:15;;;;;;;2.72;2.52;;;;;;;6.30;89.64;93279.53;1811111;77;21040;-86
2021/09/22 09:01:45;;;;;;;2.42;2.22;;;;;;;6.33;89.21;93273.39;1775611;77;21751;-86
2021/09/22 09:04:14;;;;;;;4.10;3.50;;;;;;;6.31;89.21;93266.80;1797524;77;21542;-87
2021/09/22 09:06:41;;;;;;;26.68;15.53;;;;;;;6.29;89.45;93264.48;1783869;77;21603;-86
2021/09/22 09:09:07;;;;;;;4.75;3.80;;;;;;;6.31;90.98;93263.53;1754960;79;21066;-86
2021/09/22 09:14:08;;;;;;;2.80;2.55;;;;;;;6.40;90.14;93258.42;1801261;77;21095;-86
2021/09/22 09:16:43;;;;;;;3.95;2.40;;;;;;;6.38;90.76;93261.47;1762956;78;21058;-86
2021/09/22 09:19:20;;;;;;;2.35;2.15;;;;;;;6.43;91.05;93262.50;1755894;80;21065;-86
2021/09/22 09:22:06;;;;;;;3.15;2.47;;;;;;;6.46;90.84;93256.91;1829491;77;21025;-86
2021/09/22 09:24:37;;;;;;;2.47;2.27;;;;;;;6.47;91.27;93257.91;1842751;75;21084;-87
2021/09/22 09:27:13;;;;;;;2.35;2.15;;;;;;;6.46;90.07;93266.36;1821504;77;21191;-87
2021/09/22 09:29:42;;;;;;;2.45;2.25;;;;;;;6.44;88.46;93253.82;1851620;76;21061;-86
2021/09/22 09:32:19;;;;;;;2.67;2.47;;;;;;;6.37;89.55;93255.87;1775829;78;21116;-86
2021/09/22 09:35:10;;;;;;;2.35;2.15;;;;;;;6.35;90.19;93251.41;1790963;78;21065;-86
2021/09/22 09:37:45;;;;;;;2.33;2.17;;;;;;;6.35;90.49;93252.76;1752511;78;21116;-87
2021/09/22 09:40:34;;;;;;;2.30;2.10;;;;;;;6.43;90.70;93250.34;1789195;76;21076;-86
2021/09/22 09:43:06;;;;;;;2.33;2.12;;;;;;;6.48;90.63;93245.17;1815255;77;21612;-86
2021/09/22 09:45:36;;;;;;;2.77;2.58;;;;;;;6.54;91.16;93246.36;1825184;77;21479;-86
2021/09/22 09:48:12;;;;;;;2.42;2.27;;;;;;;6.64;91.23;93247.61;1825488;77;21077;-86
2021/09/22 09:53:31;;;;;;;2.27;2.08;;;;;;;6.81;90.31;93241.58;1781234;78;21073;-85
2021/09/22 09:56:00;;;;;;;2.15;2.00;;;;;;;6.85;90.30;93240.25;1816471;77;21065;-88
2021/09/22 09:58:44;;;;;;;2.83;2.62;;;;;;;6.77;89.37;93239.40;1813544;77;21121;-86
2021/09/22 10:01:11;;;;;;;1.90;1.80;;;;;;;6.68;89.95;93237.61;1799216;76;21140;-85
2021/09/22 10:03:37;;;;;;;2.02;1.92;;;;;;;6.67;90.51;93236.06;1835491;76;21683;-87
2021/09/22 10:06:05;;;;;;;2.40;2.20;;;;;;;6.65;90.79;93239.13;1832892;76;21122;-85
2021/09/22 10:08:32;;;;;;;2.10;1.90;;;;;;;6.64;90.41;93240.28;1827476;76;21178;-86
2021/09/22 10:11:03;;;;;;;3.92;2.15;;;;;;;6.66;90.13;93241.27;1821066;77;21051;-86
2021/09/22 10:13:28;;;;;;;1.98;1.87;;;;;;;6.59;90.41;93237.94;1759837;79;21082;-88
2021/09/22 10:15:54;;;;;;;2.50;2.30;;;;;;;6.57;91.14;93240.22;1786056;77;20959;-87
2021/09/22 10:18:22;;;;;;;2.30;2.20;;;;;;;6.53;92.09;93245.59;1823294;77;21173;-88
2021/09/22 10:20:49;;;;;;;4.87;2.40;;;;;;;6.57;93.40;93240.98;1793783;77;21041;-85
2021/09/22 10:23:16;;;;;;;3.47;2.85;;;;;;;6.64;94.12;93243.56;1773236;78;21101;-88
2021/09/22 10:25:44;;;;;;;2.37;2.17;;;;;;;6.71;94.06;93241.69;1788566;78;21504;-86
2021/09/22 10:28:11;;;;;;;3.20;2.90;;;;;;;6.74;94.19;93240.17;1770677;79;21022;-87
2021/09/22 10:30:46;;;;;;;4.67;3.15;;;;;;;6.83;94.33;93237.91;1797043;79;21517;-88
2021/09/22 10:33:31;;;;;;;5.30;3.90;;;;;;;6.89;93.67;93231.02;1745593;80;21077;-86
2021/09/22 10:36:03;;;;;;;7.53;4.70;;;;;;;6.94;93.28;93238.77;1835063;77;21104;-88
2021/09/22 10:38:44;;;;;;;4.05;3.70;;;;;;;7.03;93.66;93229.77;1781651;78;21725;-85
2021/09/22 10:41:10;;;;;;;3.20;2.77;;;;;;;7.16;93.76;93232.14;1811497;77;21111;-85
2021/09/22 10:43:40;;;;;;;2.42;2.22;;;;;;;7.24;92.81;93236.44;1787440;78;21135;-85
2021/09/22 10:46:13;;;;;;;2.67;2.47;;;;;;;7.27;92.25;93237.04;1785511;79;21069;-85
2021/09/22 10:48:58;;;;;;;3.77;2.95;;;;;;;7.30;92.14;93243.82;1828662;77;21019;-86
2021/09/22 10:51:37;;;;;;;3.42;2.80;;;;;;;7.28;92.67;93241.28;1789493;79;21082;-87
2021/09/22 10:54:13;;;;;;;3.05;2.80;;;;;;;7.24;92.90;93241.27;1795992;78;21075;-87
2021/09/22 10:56:58;;;;;;;3.58;3.08;;;;;;;7.16;93.05;93242.38;1775182;80;21142;-86
2021/09/22 10:59:31;;;;;;;;;;;;;;;7.10;93.76;93230.36;1816207;78;21043;-86
2021/09/22 11:01:59;;;;;;;5.10;3.25;;;;;;;7.11;93.99;93227.88;1816513;77;20193;-87
2021/09/22 11:04:26;;;;;;;5.37;3.10;;;;;;;7.10;94.12;93233.64;1799052;77;21579;-87
2021/09/22 11:06:54;;;;;;;3.45;2.90;;;;;;;7.09;93.71;93230.75;1789066;77;21938;-87
2021/09/22 11:09:27;;;;;;;3.72;2.80;;;;;;;7.11;93.60;93229.23;1818781;78;21082;-87
2021/09/22 11:11:59;;;;;;;4.50;3.37;;;;;;;7.18;93.50;93217.66;1797446;77;20983;-87
2021/09/22 11:14:42;;;;;;;2.83;2.52;;;;;;;7.27;92.94;93215.41;1823931;77;21020;-86
2021/09/22 11:17:20;;;;;;;2.80;2.60;;;;;;;7.37;93.23;93219.30;1843909;75;21052;-86
2021/09/22 11:19:55;;;;;;;2.33;2.12;;;;;;;7.45;93.38;93205.45;1828683;76;21591;-87
2021/09/22 11:22:30;;;;;;;2.60;1.98;;;;;;;7.57;93.10;93207.62;1826384;75;21105;-86
2021/09/22 11:25:05;;;;;;;1.85;1.52;;;;;;;7.69;92.77;93203.21;1844333;75;21449;-87
2021/09/22 11:27:33;;;;;;;1.85;1.75;;;;;;;7.77;91.25;93192.59;1812153;77;21544;-87
2021/09/22 11:30:07;;;;;;;1.90;1.80;;;;;;;7.81;91.00;93200.14;1786296;79;21035;-87
2021/09/22 11:32:40;;;;;;;2.10;1.85;;;;;;;7.85;90.63;93190.69;1818769;77;21037;-86
2021/09/22 11:35:10;;;;;;;3.67;2.47;;;;;;;7.85;89.80;93194.74;1843649;75;21760;-87
2021/09/22 11:37:44;;;;;;;2.00;1.90;;;;;;;7.88;90.32;93189.92;1843972;75;21053;-87
2021/09/22 11:40:28;;;;;;;2.33;2.12;;;;;;;7.90;90.95;93184.33;1828661;77;21647;-87
2021/09/22 11:43:13;;;;;;;2.17;1.98;;;;;;;7.97;90.64;93182.20;1824247;77;21117;-86
2021/09/22 11:45:45;;;;;;;2.50;1.92;;;;;;;8.04;90.58;93184.92;1824011;77;22139;-86
2021/09/22 11:48:27;;;;;;;1.97;1.87;;;;;;;8.11;88.47;93178.75;1819621;78;21632;-88
2021/09/22 11:50:55;;;;;;;2.02;1.92;;;;;;;8.18;88.33;93173.34;1844166;76;21156;-86
2021/09/22 11:53:26;;;;;;;1.80;1.70;;;;;;;8.24;86.45;93177.23;1763810;77;21137;-87
2021/09/22 11:55:52;;;;;;;1.57;1.47;;;;;;;8.21;85.85;93168.52;1770886;78;22152;-85
2021/09/22 11:58:25;;;;;;;1.70;1.57;;;;;;;8.19;85.99;93174.30;1805528;76;21048;-86
2021/09/22 12:00:58;;;;;;;1.92;1.47;;;;;;;8.17;86.36;93171.22;1811762;76;21096;-85
2021/09/22 12:03:27;;;;;;;5.17;1.80;;;;;;;8.12;85.25;93168.88;1816827;77;21612;-85
2021/09/22 12:06:15;;;;;;;3.85;3.55;;;;;;;8.09;85.66;93177.80;1810897;77;22061;-86
2021/09/22 12:08:48;;;;;;;1.72;1.62;;;;;;;8.10;85.92;93186.69;1822575;78;21060;-85